Time;durP1;ratioP1;P1;durP2;ratioP2;P2;SDS_P1;SDS_P2;PMS_P1;PMS_P2;Temp;Humidity;BMP_temperature;BMP_pressure;BME280_temperature;BME280_humidity;BME280_pressure;Samples;Min_cycle;Max_cycle;Signal;HPM_P1;HPM_P2
2021/12/30 00:00:47;;;;;;;10.15;5.20;;;;;;;;;;5078628;28;20048;-78
2021/12/30 00:03:13;;;;;;;9.50;5.63;;;;;;;;;;5079693;28;20111;-78
2021/12/30 00:05:40;;;;;;;9.95;4.63;;;;;;;;;;5077031;28;20047;-78
2021/12/30 00:08:06;;;;;;;8.90;4.93;;;;;;;;;;5079372;28;20070;-79
2021/12/30 00:10:32;;;;;;;8.07;4.90;;;;;;;;;;5079785;28;20032;-79
2021/12/30 00:12:57;;;;;;;9.27;4.63;;;;;;;;;;5080022;28;20025;-79
2021/12/30 00:15:23;;;;;;;8.65;4.63;;;;;;;;;;5079790;28;20020;-79
2021/12/30 00:17:48;;;;;;;7.40;4.40;;;;;;;;;;5076121;28;20035;-80
2021/12/30 00:20:15;;;;;;;8.80;4.57;;;;;;;;;;5077237;28;20051;-77
2021/12/30 00:22:41;;;;;;;8.20;4.85;;;;;;;;;;5077530;28;20046;-80
2021/12/30 00:25:08;;;;;;;7.68;4.45;;;;;;;;;;5078108;28;20026;-79
2021/12/30 00:27:34;;;;;;;7.60;4.80;;;;;;;;;;5077785;28;20111;-78
2021/12/30 00:29:59;;;;;;;7.32;4.28;;;;;;;;;;5078402;28;20517;-78
2021/12/30 00:32:24;;;;;;;6.95;4.28;;;;;;;;;;5078209;28;20111;-78
2021/12/30 00:34:49;;;;;;;7.57;4.38;;;;;;;;;;5076325;28;20036;-78
2021/12/30 00:37:15;;;;;;;7.95;4.47;;;;;;;;;;5078158;28;20040;-78
2021/12/30 00:39:41;;;;;;;8.70;5.03;;;;;;;;;;5079013;28;20385;-79
2021/12/30 00:42:06;;;;;;;9.63;5.57;;;;;;;;;;5079094;28;20016;-77
2021/12/30 00:44:31;;;;;;;11.07;6.13;;;;;;;;;;5079206;28;20385;-79
2021/12/30 00:46:59;;;;;;;8.18;5.43;;;;;;;;;;5078813;28;20021;-79
2021/12/30 00:49:24;;;;;;;9.65;5.55;;;;;;;;;;5077857;28;20021;-79
2021/12/30 00:51:50;;;;;;;10.95;5.10;;;;;;;;;;5077583;28;20073;-78
2021/12/30 00:54:15;;;;;;;7.95;4.78;;;;;;;;;;5078876;28;20028;-80
2021/12/30 00:56:41;;;;;;;8.18;5.22;;;;;;;;;;5076516;28;20393;-77
2021/12/30 00:59:06;;;;;;;13.68;5.35;;;;;;;;;;5077093;28;20052;-78
2021/12/30 01:01:32;;;;;;;10.55;5.50;;;;;;;;;;5078107;28;20040;-78
2021/12/30 01:03:57;;;;;;;9.93;5.32;;;;;;;;;;5078023;28;20012;-78
2021/12/30 01:06:22;;;;;;;11.73;5.45;;;;;;;;;;5078252;28;20104;-78
2021/12/30 01:08:47;;;;;;;10.93;5.00;;;;;;;;;;5077930;28;20482;-79
2021/12/30 01:11:13;;;;;;;10.20;5.20;;;;;;;;;;5077812;28;20028;-79
2021/12/30 01:13:43;;;;;;;10.82;5.28;;;;;;;;;;5078047;28;20028;-78
2021/12/30 01:16:18;;;;;;;11.38;5.35;;;;;;;;;;5077108;28;20031;-79
2021/12/30 01:19:15;;;;;;;9.07;5.20;;;;;;;;;;5076662;28;20032;-79
2021/12/30 01:21:41;;;;;;;9.77;5.57;;;;;;;;;;5078140;28;20084;-79
2021/12/30 01:24:07;;;;;;;8.23;5.03;;;;;;;;;;5076563;28;20021;-79
2021/12/30 01:26:32;;;;;;;9.20;5.00;;;;;;;;;;5078066;28;20046;-79
2021/12/30 01:28:58;;;;;;;9.82;5.60;;;;;;;;;;5077498;28;20020;-78
2021/12/30 01:31:23;;;;;;;9.85;5.60;;;;;;;;;;5076884;28;20362;-78
2021/12/30 01:33:49;;;;;;;10.73;5.57;;;;;;;;;;5076925;28;20501;-79
2021/12/30 01:36:15;;;;;;;8.60;5.20;;;;;;;;;;5075970;28;20029;-78
2021/12/30 01:38:40;;;;;;;11.73;5.45;;;;;;;;;;5077686;28;20028;-78
2021/12/30 01:41:07;;;;;;;8.07;5.07;;;;;;;;;;5077113;28;20501;-79
2021/12/30 01:43:33;;;;;;;9.93;5.57;;;;;;;;;;5078328;28;20046;-80
2021/12/30 01:45:59;;;;;;;10.75;5.32;;;;;;;;;;5077596;28;20025;-79
2021/12/30 01:48:24;;;;;;;10.40;5.40;;;;;;;;;;5076711;28;20031;-79
2021/12/30 01:50:50;;;;;;;8.73;5.40;;;;;;;;;;5076023;28;20024;-79
2021/12/30 01:53:16;;;;;;;10.07;5.32;;;;;;;;;;5077872;28;20071;-79
2021/12/30 01:55:42;;;;;;;10.63;5.70;;;;;;;;;;5077697;28;20032;-77
2021/12/30 01:58:09;;;;;;;8.73;5.05;;;;;;;;;;5078511;28;20393;-78
2021/12/30 02:00:36;;;;;;;10.98;5.97;;;;;;;;;;5076636;28;20024;-79
2021/12/30 02:03:01;;;;;;;12.18;5.70;;;;;;;;;;5076859;28;20065;-77
2021/12/30 02:05:28;;;;;;;10.02;6.13;;;;;;;;;;5077436;28;20024;-80
2021/12/30 02:07:54;;;;;;;9.80;6.15;;;;;;;;;;5077602;28;20025;-76
2021/12/30 02:10:20;;;;;;;10.73;5.70;;;;;;;;;;5077510;28;20052;-78
2021/12/30 02:12:46;;;;;;;12.32;6.18;;;;;;;;;;5078112;28;20028;-78
2021/12/30 02:15:14;;;;;;;12.50;6.25;;;;;;;;;;5077073;28;20457;-78
2021/12/30 02:17:39;;;;;;;11.25;6.07;;;;;;;;;;5077836;28;20032;-79
2021/12/30 02:20:08;;;;;;;11.20;6.13;;;;;;;;;;5077915;28;20025;-78
2021/12/30 02:22:33;;;;;;;12.63;6.28;;;;;;;;;;5077315;28;20027;-78
2021/12/30 02:24:59;;;;;;;10.55;6.05;;;;;;;;;;5076938;28;20030;-79
2021/12/30 02:27:26;;;;;;;11.93;5.97;;;;;;;;;;5075841;28;20040;-80
2021/12/30 02:29:51;;;;;;;12.38;5.88;;;;;;;;;;5076352;28;20032;-77
2021/12/30 02:32:16;;;;;;;11.10;5.95;;;;;;;;;;5077402;28;20033;-78
2021/12/30 02:34:42;;;;;;;12.52;5.95;;;;;;;;;;5077072;28;20024;-79
2021/12/30 02:37:07;;;;;;;12.18;5.97;;;;;;;;;;5076679;28;20031;-78
2021/12/30 02:39:33;;;;;;;11.45;6.38;;;;;;;;;;5076692;28;20028;-77
2021/12/30 02:41:59;;;;;;;12.20;6.82;;;;;;;;;;5079239;28;20031;-78
2021/12/30 02:44:25;;;;;;;12.48;6.22;;;;;;;;;;5081385;28;20028;-78
2021/12/30 02:46:52;;;;;;;13.50;7.00;;;;;;;;;;5080940;28;20035;-77
2021/12/30 02:49:19;;;;;;;14.73;6.72;;;;;;;;;;5081844;28;20028;-79
2021/12/30 02:51:44;;;;;;;12.55;6.75;;;;;;;;;;5079675;28;20074;-78
2021/12/30 02:54:09;;;;;;;12.70;6.80;;;;;;;;;;5080738;28;20032;-79
2021/12/30 02:56:35;;;;;;;14.13;6.68;;;;;;;;;;5081486;28;20079;-78
2021/12/30 02:59:00;;;;;;;14.13;7.00;;;;;;;;;;5080497;28;20024;-79
2021/12/30 03:01:31;;;;;;;13.57;7.07;;;;;;;;;;5080365;28;20028;-80
2021/12/30 03:03:58;;;;;;;14.63;7.13;;;;;;;;;;5079100;28;20024;-79
2021/12/30 03:06:23;;;;;;;13.20;7.45;;;;;;;;;;5080504;28;20036;-78
2021/12/30 03:08:50;;;;;;;14.60;7.25;;;;;;;;;;5080191;28;20028;-79
2021/12/30 03:11:17;;;;;;;16.90;7.53;;;;;;;;;;5078887;28;20501;-79
2021/12/30 03:13:44;;;;;;;12.82;6.95;;;;;;;;;;5079010;28;20033;-77
2021/12/30 03:16:13;;;;;;;15.43;8.23;;;;;;;;;;5081028;28;20051;-79
2021/12/30 03:18:40;;;;;;;14.50;7.55;;;;;;;;;;5080298;28;20397;-77
2021/12/30 03:21:09;;;;;;;15.70;7.72;;;;;;;;;;5080053;28;20020;-77
2021/12/30 03:23:35;;;;;;;17.05;7.88;;;;;;;;;;5080540;28;20013;-80
2021/12/30 03:26:02;;;;;;;14.85;7.32;;;;;;;;;;5079288;28;20059;-79
2021/12/30 03:28:27;;;;;;;17.73;7.55;;;;;;;;;;5080463;28;20064;-80
2021/12/30 03:30:53;;;;;;;16.77;7.75;;;;;;;;;;5078646;28;20047;-78
2021/12/30 03:33:20;;;;;;;14.07;7.38;;;;;;;;;;5080042;28;20112;-80
2021/12/30 03:35:46;;;;;;;11.77;6.70;;;;;;;;;;5080082;28;20020;-78
2021/12/30 03:38:12;;;;;;;16.98;7.90;;;;;;;;;;5079016;28;20024;-79
2021/12/30 03:40:37;;;;;;;14.75;6.95;;;;;;;;;;5078702;28;20028;-78
2021/12/30 03:43:03;;;;;;;19.15;8.50;;;;;;;;;;5078123;28;20029;-77
2021/12/30 03:45:28;;;;;;;17.10;8.80;;;;;;;;;;5078229;28;20389;-79
2021/12/30 03:47:53;;;;;;;16.35;8.35;;;;;;;;;;5080179;28;20023;-78
2021/12/30 03:50:24;;;;;;;16.52;7.75;;;;;;;;;;5078781;28;20111;-79
2021/12/30 03:52:57;;;;;;;15.80;7.55;;;;;;;;;;5078991;28;20020;-78
2021/12/30 03:55:24;;;;;;;14.30;7.45;;;;;;;;;;5078361;28;20035;-79
2021/12/30 03:57:52;;;;;;;17.90;8.00;;;;;;;;;;5078507;28;20035;-79
2021/12/30 04:00:20;;;;;;;17.63;8.23;;;;;;;;;;5079256;28;20434;-79
2021/12/30 04:02:45;;;;;;;18.20;8.20;;;;;;;;;;5078853;28;20016;-78
2021/12/30 04:05:10;;;;;;;13.48;7.20;;;;;;;;;;5079008;28;20496;-78
2021/12/30 04:07:37;;;;;;;16.15;7.22;;;;;;;;;;5079825;28;20114;-78
2021/12/30 04:10:05;;;;;;;14.07;7.70;;;;;;;;;;5079870;28;20036;-78
2021/12/30 04:12:30;;;;;;;17.17;7.20;;;;;;;;;;5079010;28;20090;-79
2021/12/30 04:14:56;;;;;;;13.73;6.57;;;;;;;;;;5079533;28;20024;-79
2021/12/30 04:17:22;;;;;;;13.88;7.63;;;;;;;;;;5079340;28;20117;-78
2021/12/30 04:19:48;;;;;;;12.80;6.80;;;;;;;;;;5077877;28;20111;-78
2021/12/30 04:22:18;;;;;;;15.20;7.03;;;;;;;;;;5079564;28;20374;-78
2021/12/30 04:24:43;;;;;;;13.27;6.65;;;;;;;;;;5078881;28;20032;-80
2021/12/30 04:27:08;;;;;;;16.77;7.22;;;;;;;;;;5078524;28;20039;-79
2021/12/30 04:29:33;;;;;;;14.68;6.88;;;;;;;;;;5079306;28;20028;-79
2021/12/30 04:31:59;;;;;;;14.20;7.22;;;;;;;;;;5077982;28;20016;-79
2021/12/30 04:34:24;;;;;;;14.10;6.95;;;;;;;;;;5079020;28;20028;-79
2021/12/30 04:36:49;;;;;;;14.75;7.07;;;;;;;;;;5078501;28;20028;-79
2021/12/30 04:39:14;;;;;;;14.23;7.55;;;;;;;;;;5076936;28;20032;-79
2021/12/30 04:41:40;;;;;;;13.18;7.65;;;;;;;;;;5079137;28;20033;-77
2021/12/30 04:44:05;;;;;;;16.15;7.28;;;;;;;;;;5078574;28;20028;-78
2021/12/30 04:46:30;;;;;;;11.40;7.10;;;;;;;;;;5078961;28;20024;-78
2021/12/30 04:48:55;;;;;;;14.40;7.45;;;;;;;;;;5078614;28;20024;-79
2021/12/30 04:51:21;;;;;;;16.30;6.75;;;;;;;;;;5078353;28;20052;-80
2021/12/30 04:53:47;;;;;;;14.32;7.07;;;;;;;;;;5076060;28;20035;-79
2021/12/30 04:56:13;;;;;;;14.30;7.20;;;;;;;;;;5077307;28;20028;-78
2021/12/30 04:58:38;;;;;;;15.57;6.43;;;;;;;;;;5077737;28;20071;-79
2021/12/30 05:01:03;;;;;;;13.35;7.07;;;;;;;;;;5075924;28;20106;-78
2021/12/30 05:03:29;;;;;;;10.05;5.85;;;;;;;;;;5077831;28;20470;-79
2021/12/30 05:05:55;;;;;;;11.55;5.97;;;;;;;;;;5076785;28;20109;-78
2021/12/30 05:08:22;;;;;;;12.90;5.85;;;;;;;;;;5077610;28;20429;-79
2021/12/30 05:10:49;;;;;;;11.63;5.90;;;;;;;;;;5077240;28;20401;-78
2021/12/30 05:13:15;;;;;;;12.20;6.00;;;;;;;;;;5078901;28;20024;-79
2021/12/30 05:15:41;;;;;;;12.65;6.50;;;;;;;;;;5079466;28;20111;-78
2021/12/30 05:18:09;;;;;;;12.05;6.13;;;;;;;;;;5079715;28;20071;-78
2021/12/30 05:20:35;;;;;;;10.05;6.03;;;;;;;;;;5079465;28;20020;-78
2021/12/30 05:23:00;;;;;;;15.13;6.45;;;;;;;;;;5078659;28;20547;-78
2021/12/30 05:25:27;;;;;;;13.93;5.93;;;;;;;;;;5078620;28;20029;-78
2021/12/30 05:27:53;;;;;;;12.32;5.95;;;;;;;;;;5077192;28;20068;-78
2021/12/30 05:30:21;;;;;;;11.07;5.97;;;;;;;;;;5078583;28;20028;-78
2021/12/30 05:32:47;;;;;;;9.20;5.30;;;;;;;;;;5078866;28;20032;-78
2021/12/30 05:35:13;;;;;;;10.70;5.35;;;;;;;;;;5078436;28;20090;-76
2021/12/30 05:37:40;;;;;;;10.60;5.20;;;;;;;;;;5078495;28;20113;-76
2021/12/30 05:40:08;;;;;;;9.25;5.32;;;;;;;;;;5078436;28;20490;-78
2021/12/30 05:42:33;;;;;;;9.98;5.07;;;;;;;;;;5077624;28;20111;-79
2021/12/30 05:44:58;;;;;;;11.98;5.07;;;;;;;;;;5078863;28;20476;-78
2021/12/30 05:47:24;;;;;;;10.95;5.07;;;;;;;;;;5078578;28;20050;-79
2021/12/30 05:49:49;;;;;;;13.60;4.78;;;;;;;;;;5078514;28;20036;-78
2021/12/30 05:52:16;;;;;;;6.30;3.97;;;;;;;;;;5078479;28;20032;-78
2021/12/30 05:54:41;;;;;;;11.02;4.32;;;;;;;;;;5076540;28;20387;-78
2021/12/30 05:57:07;;;;;;;8.63;4.57;;;;;;;;;;5078448;28;20039;-78
2021/12/30 05:59:33;;;;;;;8.10;4.15;;;;;;;;;;5076994;28;20024;-77
2021/12/30 06:01:58;;;;;;;10.60;4.70;;;;;;;;;;5077885;28;20489;-78
2021/12/30 06:04:25;;;;;;;9.90;4.45;;;;;;;;;;5076858;28;20028;-77
2021/12/30 06:06:50;;;;;;;10.88;4.88;;;;;;;;;;5078150;28;20024;-77
2021/12/30 06:09:15;;;;;;;10.13;5.13;;;;;;;;;;5077724;28;20509;-78
2021/12/30 06:11:40;;;;;;;10.55;4.50;;;;;;;;;;5078626;28;20477;-77
2021/12/30 06:14:05;;;;;;;10.63;4.90;;;;;;;;;;5078163;28;20023;-79
2021/12/30 06:16:33;;;;;;;7.95;4.70;;;;;;;;;;5080309;28;20496;-78
2021/12/30 06:18:59;;;;;;;8.65;4.32;;;;;;;;;;5081472;28;20024;-78
2021/12/30 06:21:25;;;;;;;7.13;4.38;;;;;;;;;;5080778;28;20024;-79
2021/12/30 06:23:50;;;;;;;9.63;4.47;;;;;;;;;;5081118;28;20028;-77
2021/12/30 06:26:15;;;;;;;10.07;4.82;;;;;;;;;;5081256;28;20094;-77
2021/12/30 06:28:40;;;;;;;9.95;5.05;;;;;;;;;;5081184;28;20062;-77
2021/12/30 06:31:06;;;;;;;13.63;4.97;;;;;;;;;;5080548;28;20032;-78
2021/12/30 06:33:31;;;;;;;8.30;4.30;;;;;;;;;;5080640;28;20024;-78
2021/12/30 06:35:56;;;;;;;6.10;3.20;;;;;;;;;;5082333;28;20025;-78
2021/12/30 06:38:21;;;;;;;9.52;4.15;;;;;;;;;;5081080;28;20032;-80
2021/12/30 06:40:47;;;;;;;8.55;3.13;;;;;;;;;;5080408;28;20025;-78
2021/12/30 06:43:12;;;;;;;11.00;4.15;;;;;;;;;;5080582;28;20024;-78
2021/12/30 06:45:37;;;;;;;8.02;3.58;;;;;;;;;;5079752;28;20477;-77
2021/12/30 06:48:05;;;;;;;6.60;3.63;;;;;;;;;;5079940;28;20027;-78
2021/12/30 06:50:32;;;;;;;7.38;2.85;;;;;;;;;;5078822;28;20032;-78
2021/12/30 06:52:58;;;;;;;7.28;3.00;;;;;;;;;;5080391;28;20496;-78
2021/12/30 06:55:23;;;;;;;7.75;3.15;;;;;;;;;;5080485;28;20029;-78
2021/12/30 06:57:48;;;;;;;7.55;2.83;;;;;;;;;;5080500;28;20016;-78
2021/12/30 07:00:14;;;;;;;10.32;2.90;;;;;;;;;;5079500;28;20055;-77
2021/12/30 07:02:44;;;;;;;6.95;2.80;;;;;;;;;;5077755;28;20020;-78
2021/12/30 07:05:10;;;;;;;5.05;2.85;;;;;;;;;;5077579;28;20038;-79
2021/12/30 07:07:35;;;;;;;7.72;3.28;;;;;;;;;;5079999;28;20028;-78
2021/12/30 07:10:01;;;;;;;12.32;3.22;;;;;;;;;;5079370;28;20374;-77
2021/12/30 07:12:26;;;;;;;5.15;2.80;;;;;;;;;;5078774;28;20063;-78
2021/12/30 07:14:51;;;;;;;8.60;3.15;;;;;;;;;;5080690;28;20541;-77
2021/12/30 07:17:16;;;;;;;7.80;3.40;;;;;;;;;;5079694;28;20029;-78
2021/12/30 07:19:42;;;;;;;6.57;3.28;;;;;;;;;;5079697;28;20088;-82
2021/12/30 07:22:07;;;;;;;5.75;3.28;;;;;;;;;;5080157;28;20070;-79
2021/12/30 07:24:32;;;;;;;5.88;3.05;;;;;;;;;;5081246;28;20062;-79
2021/12/30 07:26:57;;;;;;;9.68;3.35;;;;;;;;;;5079836;28;20063;-78
2021/12/30 07:29:23;;;;;;;9.65;3.58;;;;;;;;;;5080556;28;20141;-79
2021/12/30 07:31:48;;;;;;;8.20;3.40;;;;;;;;;;5080382;28;20418;-76
2021/12/30 07:34:14;;;;;;;9.38;3.55;;;;;;;;;;5079186;28;20025;-77
2021/12/30 07:36:39;;;;;;;8.77;3.53;;;;;;;;;;5079687;28;20028;-79
2021/12/30 07:39:05;;;;;;;12.32;4.43;;;;;;;;;;5078267;28;20129;-79
2021/12/30 07:41:31;;;;;;;8.98;3.83;;;;;;;;;;5079679;28;20036;-79
2021/12/30 07:43:56;;;;;;;8.45;3.80;;;;;;;;;;5079230;28;20028;-79
2021/12/30 07:46:21;;;;;;;8.88;4.15;;;;;;;;;;5080332;28;20032;-78
2021/12/30 07:48:47;;;;;;;13.00;5.07;;;;;;;;;;5080278;28;20021;-79
2021/12/30 07:51:12;;;;;;;8.65;5.05;;;;;;;;;;5079404;28;20032;-79
2021/12/30 07:53:37;;;;;;;8.45;4.57;;;;;;;;;;5077831;28;20470;-79
2021/12/30 07:56:03;;;;;;;11.95;5.30;;;;;;;;;;5078402;28;20027;-78
2021/12/30 07:58:29;;;;;;;13.15;5.45;;;;;;;;;;5077039;28;20020;-78
2021/12/30 08:00:54;;;;;;;11.45;4.82;;;;;;;;;;5078505;28;20136;-78
2021/12/30 08:03:19;;;;;;;8.55;4.97;;;;;;;;;;5078461;28;20024;-77
2021/12/30 08:05:45;;;;;;;6.53;4.38;;;;;;;;;;5079209;28;20098;-79
2021/12/30 08:08:11;;;;;;;12.98;5.40;;;;;;;;;;5078550;28;20036;-80
2021/12/30 08:10:36;;;;;;;11.20;5.65;;;;;;;;;;5077811;28;20027;-78
2021/12/30 08:13:03;;;;;;;18.55;7.60;;;;;;;;;;5078430;28;20107;-79
2021/12/30 08:15:28;;;;;;;15.35;7.18;;;;;;;;;;5078722;28;20024;-79
2021/12/30 08:17:54;;;;;;;15.27;7.32;;;;;;;;;;5077786;28;20028;-78
2021/12/30 08:20:22;;;;;;;13.65;6.45;;;;;;;;;;5075978;28;20497;-79
2021/12/30 08:22:50;;;;;;;16.30;7.13;;;;;;;;;;5078549;28;20070;-79
2021/12/30 08:25:19;;;;;;;17.63;8.20;;;;;;;;;;5076884;28;20056;-78
2021/12/30 08:27:46;;;;;;;17.92;7.20;;;;;;;;;;5078461;28;20039;-77
2021/12/30 08:30:13;;;;;;;10.43;5.90;;;;;;;;;;5076317;28;20047;-78
2021/12/30 08:32:40;;;;;;;11.85;6.35;;;;;;;;;;5076515;28;20024;-80
2021/12/30 08:35:06;;;;;;;11.63;4.25;;;;;;;;;;5078063;28;20040;-79
2021/12/30 08:37:33;;;;;;;11.20;5.22;;;;;;;;;;5077754;28;20039;-78
2021/12/30 08:40:01;;;;;;;8.88;3.63;;;;;;;;;;5077354;28;20099;-78
2021/12/30 08:42:29;;;;;;;11.35;3.60;;;;;;;;;;5078109;28;20021;-78
2021/12/30 08:44:56;;;;;;;6.50;3.20;;;;;;;;;;5078523;28;20020;-78
2021/12/30 08:47:22;;;;;;;10.30;3.90;;;;;;;;;;5077418;28;20029;-78
2021/12/30 08:49:48;;;;;;;11.68;4.03;;;;;;;;;;5078360;28;20059;-78
2021/12/30 08:52:17;;;;;;;9.23;3.80;;;;;;;;;;5078266;28;20024;-79
2021/12/30 08:54:43;;;;;;;13.25;4.60;;;;;;;;;;5078702;28;20074;-78
2021/12/30 08:57:09;;;;;;;9.70;4.82;;;;;;;;;;5077814;28;20033;-78
2021/12/30 08:59:35;;;;;;;10.02;5.38;;;;;;;;;;5078844;28;20035;-79
2021/12/30 09:02:01;;;;;;;11.63;5.38;;;;;;;;;;5077957;28;20032;-78
2021/12/30 09:04:27;;;;;;;13.30;4.70;;;;;;;;;;5077860;28;20028;-79
2021/12/30 09:06:53;;;;;;;9.55;4.50;;;;;;;;;;5076470;28;20070;-78
2021/12/30 09:09:18;;;;;;;10.15;4.68;;;;;;;;;;5077879;28;20054;-78
2021/12/30 09:11:43;;;;;;;14.52;6.65;;;;;;;;;;5078148;28;20051;-79
2021/12/30 09:14:08;;;;;;;12.77;6.22;;;;;;;;;;5077094;28;20078;-78
2021/12/30 09:16:33;;;;;;;10.73;5.30;;;;;;;;;;5076116;28;20027;-78
2021/12/30 09:18:59;;;;;;;11.80;5.03;;;;;;;;;;5077787;28;20024;-79
2021/12/30 09:21:24;;;;;;;10.68;4.50;;;;;;;;;;5077754;28;20265;-77
2021/12/30 09:23:49;;;;;;;11.15;4.15;;;;;;;;;;5076130;28;20027;-78
2021/12/30 09:26:15;;;;;;;8.98;3.40;;;;;;;;;;5077542;28;20559;-78
2021/12/30 09:28:40;;;;;;;8.48;3.67;;;;;;;;;;5077896;28;20488;-80
2021/12/30 09:31:06;;;;;;;7.25;3.70;;;;;;;;;;5075933;28;20047;-78
2021/12/30 09:33:31;;;;;;;8.07;3.28;;;;;;;;;;5077974;28;20028;-79
2021/12/30 09:35:56;;;;;;;6.40;2.63;;;;;;;;;;5078018;28;20089;-78
2021/12/30 09:38:22;;;;;;;10.98;3.50;;;;;;;;;;5077532;28;20070;-78
2021/12/30 09:40:47;;;;;;;9.50;2.97;;;;;;;;;;5076836;28;20233;-78
2021/12/30 09:43:13;;;;;;;9.45;2.60;;;;;;;;;;5077896;28;20055;-78
2021/12/30 09:45:41;;;;;;;9.30;2.67;;;;;;;;;;5077432;28;20024;-78
2021/12/30 09:48:09;;;;;;;6.95;2.50;;;;;;;;;;5077262;28;20437;-78
2021/12/30 09:50:41;;;;;;;7.63;2.45;;;;;;;;;;5076317;28;20452;-79
2021/12/30 09:53:07;;;;;;;9.45;2.58;;;;;;;;;;5077877;28;20397;-79
2021/12/30 09:55:33;;;;;;;6.65;2.28;;;;;;;;;;5076955;28;20035;-78
2021/12/30 09:57:59;;;;;;;6.60;2.40;;;;;;;;;;5076435;28;20027;-79
2021/12/30 10:00:25;;;;;;;10.20;2.63;;;;;;;;;;5077074;28;20028;-78
2021/12/30 10:02:50;;;;;;;10.25;2.47;;;;;;;;;;5077328;28;20028;-79
2021/12/30 10:05:20;;;;;;;8.15;2.70;;;;;;;;;;5077715;28;20039;-78
2021/12/30 10:07:47;;;;;;;6.88;2.60;;;;;;;;;;5078005;28;20029;-77
2021/12/30 10:10:33;;;;;;;6.05;2.22;;;;;;;;;;5075779;28;20115;-78
2021/12/30 10:12:59;;;;;;;5.88;2.08;;;;;;;;;;5076955;28;20025;-78
2021/12/30 10:15:29;;;;;;;5.88;2.15;;;;;;;;;;5076535;28;20032;-78
2021/12/30 10:17:57;;;;;;;4.57;2.17;;;;;;;;;;5077378;28;20086;-79
2021/12/30 10:20:30;;;;;;;6.20;2.00;;;;;;;;;;5076317;28;20021;-80
2021/12/30 10:23:07;;;;;;;6.43;1.90;;;;;;;;;;5078170;28;20085;-79
2021/12/30 10:25:35;;;;;;;5.20;1.70;;;;;;;;;;5077614;28;20025;-79
2021/12/30 10:28:36;;;;;;;5.65;1.90;;;;;;;;;;5078043;28;20028;-79
2021/12/30 10:31:10;;;;;;;6.18;1.65;;;;;;;;;;5076391;28;20021;-79
2021/12/30 10:33:35;;;;;;;5.82;1.70;;;;;;;;;;5078783;28;20107;-78
2021/12/30 10:36:00;;;;;;;4.70;1.58;;;;;;;;;;5078381;28;20558;-77
2021/12/30 10:38:30;;;;;;;6.10;1.83;;;;;;;;;;5078229;28;20028;-77
2021/12/30 10:41:01;;;;;;;6.65;1.40;;;;;;;;;;5077419;28;20034;-78
2021/12/30 10:43:33;;;;;;;5.30;1.85;;;;;;;;;;5077123;28;20377;-78
2021/12/30 10:46:11;;;;;;;6.07;1.73;;;;;;;;;;5077403;28;20105;-78
2021/12/30 10:48:57;;;;;;;6.60;1.67;;;;;;;;;;5076255;28;20024;-78
2021/12/30 10:51:41;;;;;;;5.40;1.83;;;;;;;;;;5076307;28;20020;-77
2021/12/30 10:54:20;;;;;;;3.78;1.35;;;;;;;;;;5075693;28;20041;-78
2021/12/30 10:56:58;;;;;;;4.72;1.42;;;;;;;;;;5075852;28;20025;-79
2021/12/30 10:59:27;;;;;;;4.63;1.40;;;;;;;;;;5078006;28;20107;-78
2021/12/30 11:01:57;;;;;;;4.72;1.40;;;;;;;;;;5075740;28;20035;-77
2021/12/30 11:04:35;;;;;;;4.38;1.40;;;;;;;;;;5081040;28;20397;-78
2021/12/30 11:07:01;;;;;;;4.07;1.38;;;;;;;;;;5080047;28;20032;-79
2021/12/30 11:09:26;;;;;;;5.25;1.50;;;;;;;;;;5080289;28;20031;-78
2021/12/30 11:11:55;;;;;;;4.18;1.60;;;;;;;;;;5080549;28;20025;-78
2021/12/30 11:14:26;;;;;;;5.20;1.67;;;;;;;;;;5080424;28;20071;-80
2021/12/30 11:16:53;;;;;;;5.05;1.27;;;;;;;;;;5081353;28;20020;-79
2021/12/30 11:19:20;;;;;;;2.78;1.20;;;;;;;;;;5079507;28;20031;-77
2021/12/30 11:21:47;;;;;;;3.30;1.10;;;;;;;;;;5080930;28;20398;-78
2021/12/30 11:24:13;;;;;;;4.00;1.10;;;;;;;;;;5080502;28;20016;-77
2021/12/30 11:26:38;;;;;;;4.65;1.35;;;;;;;;;;5079921;28;20090;-79
2021/12/30 11:29:05;;;;;;;4.25;1.20;;;;;;;;;;5078854;28;20428;-79
2021/12/30 11:31:32;;;;;;;3.10;1.40;;;;;;;;;;5079709;28;20054;-79
2021/12/30 11:33:58;;;;;;;6.30;1.48;;;;;;;;;;5079231;28;20082;-77
2021/12/30 11:36:25;;;;;;;2.85;1.30;;;;;;;;;;5080106;28;20051;-79
2021/12/30 11:38:51;;;;;;;2.45;1.20;;;;;;;;;;5080336;28;20021;-77
2021/12/30 11:41:19;;;;;;;4.65;1.50;;;;;;;;;;5079753;28;20028;-77
2021/12/30 11:43:46;;;;;;;19.17;5.80;;;;;;;;;;5079782;28;20107;-79
2021/12/30 11:46:37;;;;;;;11.73;3.20;;;;;;;;;;5079864;28;20066;-79
2021/12/30 11:49:05;;;;;;;5.75;1.50;;;;;;;;;;5080655;28;20032;-79
2021/12/30 11:52:06;;;;;;;5.82;1.88;;;;;;;;;;5080554;28;20445;-78
2021/12/30 11:54:35;;;;;;;15.07;3.30;;;;;;;;;;5078345;28;20048;-79
2021/12/30 11:57:23;;;;;;;3.63;1.70;;;;;;;;;;5078947;28;20020;-80
2021/12/30 11:59:50;;;;;;;5.90;2.22;;;;;;;;;;5078934;28;20012;-78
2021/12/30 12:02:32;;;;;;;2.85;1.38;;;;;;;;;;5079603;28;20020;-78
2021/12/30 12:04:58;;;;;;;3.15;1.10;;;;;;;;;;5078146;28;20063;-78
2021/12/30 12:07:23;;;;;;;2.65;1.13;;;;;;;;;;5080335;28;20020;-77
2021/12/30 12:09:49;;;;;;;4.53;1.45;;;;;;;;;;5079969;28;20028;-78
2021/12/30 12:12:28;;;;;;;3.42;1.50;;;;;;;;;;5077504;28;20021;-80
2021/12/30 12:14:59;;;;;;;5.93;1.73;;;;;;;;;;5078592;28;20021;-79
2021/12/30 12:17:35;;;;;;;6.10;2.40;;;;;;;;;;5078161;28;20020;-79
2021/12/30 12:20:13;;;;;;;4.65;1.30;;;;;;;;;;5079045;28;20094;-80
2021/12/30 12:22:38;;;;;;;3.63;1.60;;;;;;;;;;5078870;28;20025;-79
2021/12/30 12:25:19;;;;;;;5.57;2.10;;;;;;;;;;5078040;28;20043;-79
2021/12/30 12:27:52;;;;;;;3.22;1.70;;;;;;;;;;5079715;28;20024;-79
2021/12/30 12:30:30;;;;;;;3.88;1.77;;;;;;;;;;5078981;28;20448;-78
2021/12/30 12:32:57;;;;;;;4.15;1.40;;;;;;;;;;5078994;28;20025;-79
2021/12/30 12:35:26;;;;;;;3.53;1.35;;;;;;;;;;5078486;28;20038;-79
2021/12/30 12:37:54;;;;;;;2.30;1.20;;;;;;;;;;5077799;28;20043;-79
2021/12/30 12:40:44;;;;;;;1.50;1.00;;;;;;;;;;5077741;28;20027;-78
2021/12/30 12:43:15;;;;;;;3.42;1.10;;;;;;;;;;5078688;28;20051;-78
2021/12/30 12:45:59;;;;;;;1.73;0.82;;;;;;;;;;5078812;28;20032;-79
2021/12/30 12:48:30;;;;;;;2.87;0.90;;;;;;;;;;5079236;28;20103;-79
2021/12/30 12:51:22;;;;;;;1.55;0.90;;;;;;;;;;5077849;28;20031;-80
2021/12/30 12:53:52;;;;;;;1.88;1.00;;;;;;;;;;5077408;28;20399;-78
2021/12/30 12:56:28;;;;;;;2.22;0.90;;;;;;;;;;5077627;28;20032;-78
2021/12/30 12:58:54;;;;;;;2.53;1.08;;;;;;;;;;5077274;28;20021;-79
2021/12/30 13:01:23;;;;;;;2.85;1.10;;;;;;;;;;5076860;28;20020;-78
2021/12/30 13:03:50;;;;;;;1.83;0.82;;;;;;;;;;5078820;28;20058;-79
2021/12/30 13:06:17;;;;;;;2.58;0.90;;;;;;;;;;5078483;28;20032;-77
2021/12/30 13:08:46;;;;;;;2.17;1.10;;;;;;;;;;5077817;28;20028;-77
2021/12/30 13:11:28;;;;;;;1.23;0.73;;;;;;;;;;5078756;28;20024;-79
2021/12/30 13:13:54;;;;;;;1.55;0.75;;;;;;;;;;5076459;28;20411;-78
2021/12/30 13:16:24;;;;;;;1.50;0.80;;;;;;;;;;5077746;28;20025;-77
2021/12/30 13:19:10;;;;;;;0.90;0.73;;;;;;;;;;5077901;28;20077;-77
2021/12/30 13:21:40;;;;;;;3.72;0.98;;;;;;;;;;5075772;28;20028;-78
2021/12/30 13:24:05;;;;;;;2.38;1.00;;;;;;;;;;5076706;28;20021;-79
2021/12/30 13:26:38;;;;;;;2.78;1.20;;;;;;;;;;5075152;28;20478;-77
2021/12/30 13:29:04;;;;;;;6.53;1.30;;;;;;;;;;5075826;28;20024;-78
2021/12/30 13:31:32;;;;;;;4.85;1.17;;;;;;;;;;5075578;28;20477;-78
2021/12/30 13:34:00;;;;;;;2.20;1.00;;;;;;;;;;5074628;28;20025;-78
2021/12/30 13:36:27;;;;;;;7.32;2.63;;;;;;;;;;5076677;28;20068;-78
2021/12/30 13:38:53;;;;;;;4.80;1.98;;;;;;;;;;5076659;28;20044;-78
2021/12/30 13:41:21;;;;;;;3.00;1.20;;;;;;;;;;5076209;28;20028;-79
2021/12/30 13:43:46;;;;;;;3.00;1.00;;;;;;;;;;5076599;28;20497;-78
2021/12/30 13:46:14;;;;;;;3.00;1.70;;;;;;;;;;5076624;28;20032;-77
2021/12/30 13:48:41;;;;;;;4.75;2.00;;;;;;;;;;5074994;28;20111;-77
2021/12/30 13:51:31;;;;;;;1.90;1.38;;;;;;;;;;5075625;28;20016;-78
2021/12/30 13:53:56;;;;;;;4.22;1.90;;;;;;;;;;5076317;28;20048;-78
2021/12/30 13:56:28;;;;;;;5.80;1.65;;;;;;;;;;5076444;28;20381;-78
2021/12/30 13:58:56;;;;;;;8.00;1.95;;;;;;;;;;5075631;28;20029;-78
2021/12/30 14:01:23;;;;;;;3.08;1.30;;;;;;;;;;5073864;28;20115;-78
2021/12/30 14:04:18;;;;;;;6.00;2.30;;;;;;;;;;5073766;28;20024;-79
2021/12/30 14:06:47;;;;;;;2.13;1.17;;;;;;;;;;5076478;28;20048;-79
2021/12/30 14:09:17;;;;;;;1.55;1.00;;;;;;;;;;5076451;28;20477;-78
2021/12/30 14:11:45;;;;;;;1.40;0.88;;;;;;;;;;5076577;28;20043;-78
2021/12/30 14:14:31;;;;;;;1.30;0.60;;;;;;;;;;5074093;28;20024;-81
2021/12/30 14:16:58;;;;;;;1.13;0.80;;;;;;;;;;5073723;28;20036;-78
2021/12/30 14:19:37;;;;;;;1.02;0.80;;;;;;;;;;5076287;28;20163;-78
2021/12/30 14:22:05;;;;;;;0.57;0.57;;;;;;;;;;5075676;28;20074;-79
2021/12/30 14:24:32;;;;;;;1.70;0.80;;;;;;;;;;5075828;28;20466;-79
2021/12/30 14:27:15;;;;;;;0.90;0.70;;;;;;;;;;5075743;28;20033;-78
2021/12/30 14:29:40;;;;;;;1.40;0.73;;;;;;;;;;5077434;28;20035;-77
2021/12/30 14:32:11;;;;;;;1.42;1.10;;;;;;;;;;5075838;28;20261;-78
2021/12/30 14:34:43;;;;;;;1.48;0.90;;;;;;;;;;5074601;28;20035;-78
2021/12/30 14:37:08;;;;;;;0.90;0.65;;;;;;;;;;5075140;28;20444;-78
2021/12/30 14:39:40;;;;;;;1.70;1.13;;;;;;;;;;5081149;28;20020;-77
2021/12/30 14:42:07;;;;;;;1.05;0.80;;;;;;;;;;5080031;28;20020;-78